sensor_id;sensor_type;location;lat;lon;timestamp;P1;durP1;ratioP1;P2;durP2;ratioP2
9467;SDS011;4772;52.382;9.752;2022-12-18T00:01:00;18.50;;;10.37;;
9467;SDS011;4772;52.382;9.752;2022-12-18T00:03:31;18.90;;;11.03;;
9467;SDS011;4772;52.382;9.752;2022-12-18T00:05:57;16.97;;;10.53;;
9467;SDS011;4772;52.382;9.752;2022-12-18T00:08:23;16.40;;;10.67;;
9467;SDS011;4772;52.382;9.752;2022-12-18T00:10:49;16.63;;;9.80;;
9467;SDS011;4772;52.382;9.752;2022-12-18T00:13:15;15.60;;;10.27;;
9467;SDS011;4772;52.382;9.752;2022-12-18T00:15:41;17.63;;;9.80;;
9467;SDS011;4772;52.382;9.752;2022-12-18T00:18:07;14.53;;;10.10;;
9467;SDS011;4772;52.382;9.752;2022-12-18T00:20:36;19.13;;;10.40;;
9467;SDS011;4772;52.382;9.752;2022-12-18T00:23:04;18.47;;;10.47;;
9467;SDS011;4772;52.382;9.752;2022-12-18T00:25:32;19.33;;;11.13;;
9467;SDS011;4772;52.382;9.752;2022-12-18T00:27:59;17.60;;;10.67;;
9467;SDS011;4772;52.382;9.752;2022-12-18T00:30:25;18.37;;;11.43;;
9467;SDS011;4772;52.382;9.752;2022-12-18T00:32:51;19.37;;;10.87;;
9467;SDS011;4772;52.382;9.752;2022-12-18T00:35:17;16.17;;;10.80;;
9467;SDS011;4772;52.382;9.752;2022-12-18T00:37:43;18.37;;;9.63;;
9467;SDS011;4772;52.382;9.752;2022-12-18T00:40:09;17.13;;;10.47;;
9467;SDS011;4772;52.382;9.752;2022-12-18T00:42:35;16.50;;;10.60;;
9467;SDS011;4772;52.382;9.752;2022-12-18T00:45:20;14.57;;;10.00;;
9467;SDS011;4772;52.382;9.752;2022-12-18T00:47:46;16.93;;;10.27;;
9467;SDS011;4772;52.382;9.752;2022-12-18T00:50:12;17.20;;;10.40;;
9467;SDS011;4772;52.382;9.752;2022-12-18T00:52:41;15.73;;;10.50;;
9467;SDS011;4772;52.382;9.752;2022-12-18T00:55:07;17.90;;;10.50;;
9467;SDS011;4772;52.382;9.752;2022-12-18T00:57:33;16.60;;;10.43;;
9467;SDS011;4772;52.382;9.752;2022-12-18T00:59:59;16.67;;;10.63;;
9467;SDS011;4772;52.382;9.752;2022-12-18T01:02:25;19.10;;;11.70;;
9467;SDS011;4772;52.382;9.752;2022-12-18T01:04:51;17.67;;;10.57;;
9467;SDS011;4772;52.382;9.752;2022-12-18T01:07:17;18.03;;;10.53;;
9467;SDS011;4772;52.382;9.752;2022-12-18T01:09:44;17.00;;;10.40;;
9467;SDS011;4772;52.382;9.752;2022-12-18T01:12:10;16.97;;;11.07;;
9467;SDS011;4772;52.382;9.752;2022-12-18T01:14:36;14.37;;;10.10;;
9467;SDS011;4772;52.382;9.752;2022-12-18T01:17:03;16.20;;;10.57;;
9467;SDS011;4772;52.382;9.752;2022-12-18T01:19:29;17.90;;;10.73;;
9467;SDS011;4772;52.382;9.752;2022-12-18T01:22:02;15.33;;;9.63;;
9467;SDS011;4772;52.382;9.752;2022-12-18T01:24:28;15.40;;;10.23;;
9467;SDS011;4772;52.382;9.752;2022-12-18T01:26:54;14.27;;;9.03;;
9467;SDS011;4772;52.382;9.752;2022-12-18T01:29:22;16.93;;;10.07;;
9467;SDS011;4772;52.382;9.752;2022-12-18T01:31:49;15.37;;;9.37;;
9467;SDS011;4772;52.382;9.752;2022-12-18T01:34:15;15.37;;;10.07;;
9467;SDS011;4772;52.382;9.752;2022-12-18T01:36:41;16.17;;;10.40;;
9467;SDS011;4772;52.382;9.752;2022-12-18T01:39:10;16.17;;;9.47;;
9467;SDS011;4772;52.382;9.752;2022-12-18T01:41:36;18.23;;;10.23;;
9467;SDS011;4772;52.382;9.752;2022-12-18T01:47:06;16.53;;;10.23;;
9467;SDS011;4772;52.382;9.752;2022-12-18T01:49:32;16.17;;;10.07;;
9467;SDS011;4772;52.382;9.752;2022-12-18T01:51:58;20.70;;;10.40;;
9467;SDS011;4772;52.382;9.752;2022-12-18T01:54:24;15.80;;;10.30;;
9467;SDS011;4772;52.382;9.752;2022-12-18T01:56:50;22.00;;;10.67;;
9467;SDS011;4772;52.382;9.752;2022-12-18T01:59:16;14.83;;;9.87;;
9467;SDS011;4772;52.382;9.752;2022-12-18T02:01:42;17.70;;;9.60;;
9467;SDS011;4772;52.382;9.752;2022-12-18T02:09:33;21.03;;;10.57;;
9467;SDS011;4772;52.382;9.752;2022-12-18T02:14:40;19.50;;;10.77;;
9467;SDS011;4772;52.382;9.752;2022-12-18T02:17:18;16.10;;;9.93;;
9467;SDS011;4772;52.382;9.752;2022-12-18T02:27:24;17.07;;;10.37;;
9467;SDS011;4772;52.382;9.752;2022-12-18T02:29:52;16.20;;;10.50;;
9467;SDS011;4772;52.382;9.752;2022-12-18T02:32:30;14.80;;;9.40;;
9467;SDS011;4772;52.382;9.752;2022-12-18T02:34:57;14.57;;;9.67;;
9467;SDS011;4772;52.382;9.752;2022-12-18T02:37:23;16.50;;;9.40;;
9467;SDS011;4772;52.382;9.752;2022-12-18T02:39:51;20.43;;;10.60;;
9467;SDS011;4772;52.382;9.752;2022-12-18T02:42:18;15.90;;;9.30;;
9467;SDS011;4772;52.382;9.752;2022-12-18T02:44:45;15.43;;;10.13;;
9467;SDS011;4772;52.382;9.752;2022-12-18T02:47:12;16.40;;;9.60;;
9467;SDS011;4772;52.382;9.752;2022-12-18T02:55:08;15.90;;;10.17;;
9467;SDS011;4772;52.382;9.752;2022-12-18T02:57:58;15.27;;;10.50;;
9467;SDS011;4772;52.382;9.752;2022-12-18T03:00:30;17.23;;;10.80;;
9467;SDS011;4772;52.382;9.752;2022-12-18T03:03:05;19.30;;;11.43;;
9467;SDS011;4772;52.382;9.752;2022-12-18T03:05:37;15.63;;;10.40;;
9467;SDS011;4772;52.382;9.752;2022-12-18T03:08:06;17.30;;;10.17;;
9467;SDS011;4772;52.382;9.752;2022-12-18T03:10:34;15.80;;;10.47;;
9467;SDS011;4772;52.382;9.752;2022-12-18T03:13:13;16.47;;;10.50;;
9467;SDS011;4772;52.382;9.752;2022-12-18T03:15:42;18.77;;;11.33;;
9467;SDS011;4772;52.382;9.752;2022-12-18T03:18:20;16.27;;;10.47;;
9467;SDS011;4772;52.382;9.752;2022-12-18T03:20:47;21.80;;;10.57;;
9467;SDS011;4772;52.382;9.752;2022-12-18T03:23:19;16.93;;;10.63;;
9467;SDS011;4772;52.382;9.752;2022-12-18T03:25:46;17.57;;;10.77;;
9467;SDS011;4772;52.382;9.752;2022-12-18T03:28:14;19.10;;;11.30;;
9467;SDS011;4772;52.382;9.752;2022-12-18T03:30:41;18.60;;;10.80;;
9467;SDS011;4772;52.382;9.752;2022-12-18T03:33:10;15.80;;;10.63;;
9467;SDS011;4772;52.382;9.752;2022-12-18T03:35:39;17.03;;;10.37;;
9467;SDS011;4772;52.382;9.752;2022-12-18T03:38:06;18.67;;;11.17;;
9467;SDS011;4772;52.382;9.752;2022-12-18T03:40:40;17.43;;;11.60;;
9467;SDS011;4772;52.382;9.752;2022-12-18T03:43:10;18.20;;;11.13;;
9467;SDS011;4772;52.382;9.752;2022-12-18T03:45:41;14.50;;;10.50;;
9467;SDS011;4772;52.382;9.752;2022-12-18T03:48:10;17.87;;;11.03;;
9467;SDS011;4772;52.382;9.752;2022-12-18T03:53:37;21.60;;;11.97;;
9467;SDS011;4772;52.382;9.752;2022-12-18T03:56:05;18.80;;;11.50;;
9467;SDS011;4772;52.382;9.752;2022-12-18T03:58:32;17.63;;;11.27;;
9467;SDS011;4772;52.382;9.752;2022-12-18T04:00:59;21.10;;;12.17;;
9467;SDS011;4772;52.382;9.752;2022-12-18T04:03:27;17.33;;;11.57;;
9467;SDS011;4772;52.382;9.752;2022-12-18T04:05:55;17.40;;;11.27;;
9467;SDS011;4772;52.382;9.752;2022-12-18T04:08:22;17.00;;;11.13;;
9467;SDS011;4772;52.382;9.752;2022-12-18T04:10:48;16.73;;;10.83;;
9467;SDS011;4772;52.382;9.752;2022-12-18T04:13:21;20.33;;;11.83;;
9467;SDS011;4772;52.382;9.752;2022-12-18T04:15:47;22.20;;;11.47;;
9467;SDS011;4772;52.382;9.752;2022-12-18T04:18:13;21.07;;;11.80;;
9467;SDS011;4772;52.382;9.752;2022-12-18T04:20:39;17.83;;;11.33;;
9467;SDS011;4772;52.382;9.752;2022-12-18T04:23:05;17.60;;;11.83;;
9467;SDS011;4772;52.382;9.752;2022-12-18T04:25:31;18.33;;;11.23;;
9467;SDS011;4772;52.382;9.752;2022-12-18T04:27:57;20.33;;;12.20;;
9467;SDS011;4772;52.382;9.752;2022-12-18T04:30:23;17.63;;;11.47;;
9467;SDS011;4772;52.382;9.752;2022-12-18T04:32:49;17.37;;;12.10;;
9467;SDS011;4772;52.382;9.752;2022-12-18T04:35:15;18.17;;;11.53;;
9467;SDS011;4772;52.382;9.752;2022-12-18T04:37:41;21.70;;;11.97;;
9467;SDS011;4772;52.382;9.752;2022-12-18T04:40:07;18.80;;;11.70;;
9467;SDS011;4772;52.382;9.752;2022-12-18T04:42:33;16.00;;;10.70;;
9467;SDS011;4772;52.382;9.752;2022-12-18T04:44:59;18.67;;;11.37;;
9467;SDS011;4772;52.382;9.752;2022-12-18T04:47:25;14.73;;;10.13;;
9467;SDS011;4772;52.382;9.752;2022-12-18T04:49:51;17.17;;;10.63;;
9467;SDS011;4772;52.382;9.752;2022-12-18T04:52:17;16.60;;;11.30;;
9467;SDS011;4772;52.382;9.752;2022-12-18T04:54:43;18.27;;;11.77;;
9467;SDS011;4772;52.382;9.752;2022-12-18T04:57:09;17.03;;;10.73;;
9467;SDS011;4772;52.382;9.752;2022-12-18T04:59:35;16.23;;;10.83;;
9467;SDS011;4772;52.382;9.752;2022-12-18T05:02:01;17.50;;;10.93;;
9467;SDS011;4772;52.382;9.752;2022-12-18T05:04:27;18.20;;;10.50;;
9467;SDS011;4772;52.382;9.752;2022-12-18T05:06:53;18.97;;;10.97;;
9467;SDS011;4772;52.382;9.752;2022-12-18T05:09:19;19.73;;;11.20;;
9467;SDS011;4772;52.382;9.752;2022-12-18T05:11:45;16.30;;;10.23;;
9467;SDS011;4772;52.382;9.752;2022-12-18T05:14:11;16.30;;;10.93;;
9467;SDS011;4772;52.382;9.752;2022-12-18T05:16:37;15.33;;;10.67;;
9467;SDS011;4772;52.382;9.752;2022-12-18T05:19:03;17.40;;;10.00;;
9467;SDS011;4772;52.382;9.752;2022-12-18T05:21:29;16.63;;;10.60;;
9467;SDS011;4772;52.382;9.752;2022-12-18T05:23:55;14.60;;;10.80;;
9467;SDS011;4772;52.382;9.752;2022-12-18T05:26:21;17.17;;;11.27;;
9467;SDS011;4772;52.382;9.752;2022-12-18T05:28:48;15.43;;;10.27;;
9467;SDS011;4772;52.382;9.752;2022-12-18T05:31:14;16.80;;;10.67;;
9467;SDS011;4772;52.382;9.752;2022-12-18T05:33:40;17.07;;;10.47;;
9467;SDS011;4772;52.382;9.752;2022-12-18T05:36:06;17.60;;;10.90;;
9467;SDS011;4772;52.382;9.752;2022-12-18T05:38:34;19.43;;;11.07;;
9467;SDS011;4772;52.382;9.752;2022-12-18T05:41:00;18.73;;;10.63;;
9467;SDS011;4772;52.382;9.752;2022-12-18T05:43:27;18.23;;;10.30;;
9467;SDS011;4772;52.382;9.752;2022-12-18T05:45:53;15.10;;;10.60;;
9467;SDS011;4772;52.382;9.752;2022-12-18T05:48:19;20.70;;;9.70;;
9467;SDS011;4772;52.382;9.752;2022-12-18T05:50:46;16.67;;;10.77;;
9467;SDS011;4772;52.382;9.752;2022-12-18T05:53:13;16.97;;;10.07;;
9467;SDS011;4772;52.382;9.752;2022-12-18T05:55:40;13.73;;;9.63;;
9467;SDS011;4772;52.382;9.752;2022-12-18T05:58:07;17.40;;;10.17;;
9467;SDS011;4772;52.382;9.752;2022-12-18T06:00:34;17.63;;;10.80;;
9467;SDS011;4772;52.382;9.752;2022-12-18T06:03:00;14.10;;;8.90;;
9467;SDS011;4772;52.382;9.752;2022-12-18T06:05:26;18.73;;;10.83;;
9467;SDS011;4772;52.382;9.752;2022-12-18T06:07:52;16.57;;;9.80;;
9467;SDS011;4772;52.382;9.752;2022-12-18T06:10:19;16.87;;;10.40;;
9467;SDS011;4772;52.382;9.752;2022-12-18T06:12:45;14.60;;;9.80;;
9467;SDS011;4772;52.382;9.752;2022-12-18T06:15:11;17.33;;;10.43;;
9467;SDS011;4772;52.382;9.752;2022-12-18T06:17:37;15.47;;;10.23;;
9467;SDS011;4772;52.382;9.752;2022-12-18T06:20:03;15.77;;;9.53;;
9467;SDS011;4772;52.382;9.752;2022-12-18T06:22:31;14.80;;;9.30;;
9467;SDS011;4772;52.382;9.752;2022-12-18T06:24:57;18.47;;;9.80;;
9467;SDS011;4772;52.382;9.752;2022-12-18T06:27:24;15.90;;;10.13;;
9467;SDS011;4772;52.382;9.752;2022-12-18T06:29:50;15.90;;;9.73;;
9467;SDS011;4772;52.382;9.752;2022-12-18T06:32:16;16.70;;;9.83;;
9467;SDS011;4772;52.382;9.752;2022-12-18T06:34:42;18.43;;;10.67;;
9467;SDS011;4772;52.382;9.752;2022-12-18T06:37:08;16.57;;;10.00;;
9467;SDS011;4772;52.382;9.752;2022-12-18T06:39:34;17.00;;;10.33;;
9467;SDS011;4772;52.382;9.752;2022-12-18T06:42:00;16.20;;;10.23;;
9467;SDS011;4772;52.382;9.752;2022-12-18T06:44:26;14.97;;;8.97;;
9467;SDS011;4772;52.382;9.752;2022-12-18T06:46:52;17.53;;;8.83;;
9467;SDS011;4772;52.382;9.752;2022-12-18T06:49:18;18.30;;;9.60;;
9467;SDS011;4772;52.382;9.752;2022-12-18T06:51:44;14.13;;;9.70;;
9467;SDS011;4772;52.382;9.752;2022-12-18T06:54:10;14.60;;;8.83;;
9467;SDS011;4772;52.382;9.752;2022-12-18T06:56:36;17.03;;;9.50;;
9467;SDS011;4772;52.382;9.752;2022-12-18T06:59:02;15.40;;;9.70;;
9467;SDS011;4772;52.382;9.752;2022-12-18T07:01:28;16.60;;;9.57;;
9467;SDS011;4772;52.382;9.752;2022-12-18T07:03:54;14.70;;;8.87;;
9467;SDS011;4772;52.382;9.752;2022-12-18T07:06:21;14.87;;;9.50;;
9467;SDS011;4772;52.382;9.752;2022-12-18T07:08:47;15.37;;;10.00;;
9467;SDS011;4772;52.382;9.752;2022-12-18T07:11:14;14.37;;;9.20;;
9467;SDS011;4772;52.382;9.752;2022-12-18T07:13:40;15.27;;;10.20;;
9467;SDS011;4772;52.382;9.752;2022-12-18T07:16:10;12.30;;;8.70;;
9467;SDS011;4772;52.382;9.752;2022-12-18T07:18:36;15.43;;;9.53;;
9467;SDS011;4772;52.382;9.752;2022-12-18T07:21:06;14.00;;;8.83;;
9467;SDS011;4772;52.382;9.752;2022-12-18T07:23:33;14.87;;;9.93;;
9467;SDS011;4772;52.382;9.752;2022-12-18T07:26:06;15.07;;;9.13;;
9467;SDS011;4772;52.382;9.752;2022-12-18T07:28:33;14.93;;;9.20;;
9467;SDS011;4772;52.382;9.752;2022-12-18T07:31:06;17.17;;;10.23;;
9467;SDS011;4772;52.382;9.752;2022-12-18T07:33:33;14.80;;;9.27;;
9467;SDS011;4772;52.382;9.752;2022-12-18T07:35:59;16.27;;;10.30;;
9467;SDS011;4772;52.382;9.752;2022-12-18T07:38:25;16.90;;;9.77;;
9467;SDS011;4772;52.382;9.752;2022-12-18T07:40:51;14.47;;;9.93;;
9467;SDS011;4772;52.382;9.752;2022-12-18T07:43:17;14.00;;;9.43;;
9467;SDS011;4772;52.382;9.752;2022-12-18T07:45:43;22.37;;;9.93;;
9467;SDS011;4772;52.382;9.752;2022-12-18T07:48:09;15.33;;;9.60;;
9467;SDS011;4772;52.382;9.752;2022-12-18T07:50:36;16.50;;;9.70;;
9467;SDS011;4772;52.382;9.752;2022-12-18T07:53:02;13.73;;;9.37;;
9467;SDS011;4772;52.382;9.752;2022-12-18T07:55:30;14.37;;;8.67;;
9467;SDS011;4772;52.382;9.752;2022-12-18T07:57:56;17.67;;;10.07;;
9467;SDS011;4772;52.382;9.752;2022-12-18T08:00:22;13.43;;;8.87;;
9467;SDS011;4772;52.382;9.752;2022-12-18T08:02:48;15.20;;;10.30;;
9467;SDS011;4772;52.382;9.752;2022-12-18T08:05:14;14.10;;;9.30;;
9467;SDS011;4772;52.382;9.752;2022-12-18T08:07:40;17.07;;;9.37;;
9467;SDS011;4772;52.382;9.752;2022-12-18T08:10:06;14.90;;;9.30;;
9467;SDS011;4772;52.382;9.752;2022-12-18T08:12:32;13.50;;;9.43;;
9467;SDS011;4772;52.382;9.752;2022-12-18T08:14:58;18.07;;;9.13;;
9467;SDS011;4772;52.382;9.752;2022-12-18T08:17:24;16.83;;;10.00;;
9467;SDS011;4772;52.382;9.752;2022-12-18T08:19:50;12.77;;;9.37;;
9467;SDS011;4772;52.382;9.752;2022-12-18T08:22:16;17.17;;;9.33;;
9467;SDS011;4772;52.382;9.752;2022-12-18T08:24:42;14.80;;;9.20;;
9467;SDS011;4772;52.382;9.752;2022-12-18T08:27:09;15.00;;;8.93;;
9467;SDS011;4772;52.382;9.752;2022-12-18T08:29:34;14.23;;;9.37;;
9467;SDS011;4772;52.382;9.752;2022-12-18T08:32:00;20.80;;;10.87;;
9467;SDS011;4772;52.382;9.752;2022-12-18T08:34:26;12.10;;;8.23;;
9467;SDS011;4772;52.382;9.752;2022-12-18T08:36:53;15.13;;;9.00;;
9467;SDS011;4772;52.382;9.752;2022-12-18T08:39:19;14.13;;;9.57;;
9467;SDS011;4772;52.382;9.752;2022-12-18T08:41:45;12.07;;;8.30;;
9467;SDS011;4772;52.382;9.752;2022-12-18T08:44:31;16.87;;;9.20;;
9467;SDS011;4772;52.382;9.752;2022-12-18T08:47:03;14.27;;;10.20;;
9467;SDS011;4772;52.382;9.752;2022-12-18T08:49:29;13.63;;;8.33;;
9467;SDS011;4772;52.382;9.752;2022-12-18T08:51:55;12.23;;;8.60;;
9467;SDS011;4772;52.382;9.752;2022-12-18T08:54:24;15.70;;;7.30;;
9467;SDS011;4772;52.382;9.752;2022-12-18T08:56:50;15.33;;;7.93;;
9467;SDS011;4772;52.382;9.752;2022-12-18T08:59:17;10.07;;;6.87;;
9467;SDS011;4772;52.382;9.752;2022-12-18T09:01:43;12.90;;;7.17;;
9467;SDS011;4772;52.382;9.752;2022-12-18T09:04:09;10.53;;;6.87;;
9467;SDS011;4772;52.382;9.752;2022-12-18T09:06:35;10.57;;;7.67;;
9467;SDS011;4772;52.382;9.752;2022-12-18T09:09:02;10.00;;;7.00;;
9467;SDS011;4772;52.382;9.752;2022-12-18T09:11:28;9.97;;;7.00;;
9467;SDS011;4772;52.382;9.752;2022-12-18T09:13:55;9.63;;;6.87;;
9467;SDS011;4772;52.382;9.752;2022-12-18T09:16:21;16.23;;;10.10;;
9467;SDS011;4772;52.382;9.752;2022-12-18T09:18:48;11.43;;;7.47;;
9467;SDS011;4772;52.382;9.752;2022-12-18T09:21:18;11.47;;;7.70;;
9467;SDS011;4772;52.382;9.752;2022-12-18T09:23:48;13.07;;;8.53;;
9467;SDS011;4772;52.382;9.752;2022-12-18T09:26:14;13.47;;;9.30;;
9467;SDS011;4772;52.382;9.752;2022-12-18T09:28:40;12.07;;;8.13;;
9467;SDS011;4772;52.382;9.752;2022-12-18T09:31:07;12.47;;;8.20;;
9467;SDS011;4772;52.382;9.752;2022-12-18T09:33:36;10.00;;;7.30;;
9467;SDS011;4772;52.382;9.752;2022-12-18T09:36:03;11.03;;;7.77;;
9467;SDS011;4772;52.382;9.752;2022-12-18T09:38:29;11.00;;;7.50;;
9467;SDS011;4772;52.382;9.752;2022-12-18T09:41:05;14.23;;;7.87;;
9467;SDS011;4772;52.382;9.752;2022-12-18T09:43:37;10.57;;;7.10;;
9467;SDS011;4772;52.382;9.752;2022-12-18T09:46:08;10.90;;;7.30;;
9467;SDS011;4772;52.382;9.752;2022-12-18T09:48:36;12.93;;;7.90;;
9467;SDS011;4772;52.382;9.752;2022-12-18T09:51:08;10.97;;;7.43;;
9467;SDS011;4772;52.382;9.752;2022-12-18T09:53:37;8.93;;;6.77;;
9467;SDS011;4772;52.382;9.752;2022-12-18T09:56:04;10.33;;;7.20;;
9467;SDS011;4772;52.382;9.752;2022-12-18T09:58:39;8.00;;;6.60;;
9467;SDS011;4772;52.382;9.752;2022-12-18T10:01:13;11.87;;;7.40;;
9467;SDS011;4772;52.382;9.752;2022-12-18T10:03:40;10.93;;;7.00;;
9467;SDS011;4772;52.382;9.752;2022-12-18T10:06:11;8.90;;;6.70;;
9467;SDS011;4772;52.382;9.752;2022-12-18T10:08:41;9.60;;;6.77;;
9467;SDS011;4772;52.382;9.752;2022-12-18T10:11:21;9.53;;;6.53;;
9467;SDS011;4772;52.382;9.752;2022-12-18T10:16:59;8.47;;;6.53;;
9467;SDS011;4772;52.382;9.752;2022-12-18T10:19:35;11.63;;;7.20;;
9467;SDS011;4772;52.382;9.752;2022-12-18T10:24:59;8.03;;;6.07;;
9467;SDS011;4772;52.382;9.752;2022-12-18T10:27:27;9.00;;;5.97;;
9467;SDS011;4772;52.382;9.752;2022-12-18T10:29:53;9.33;;;6.53;;
9467;SDS011;4772;52.382;9.752;2022-12-18T10:32:20;10.10;;;7.07;;
9467;SDS011;4772;52.382;9.752;2022-12-18T10:34:47;10.10;;;6.63;;
9467;SDS011;4772;52.382;9.752;2022-12-18T10:37:15;9.97;;;6.90;;
9467;SDS011;4772;52.382;9.752;2022-12-18T10:39:42;11.07;;;6.57;;
9467;SDS011;4772;52.382;9.752;2022-12-18T10:42:15;9.60;;;6.40;;
9467;SDS011;4772;52.382;9.752;2022-12-18T10:44:41;9.17;;;6.07;;
9467;SDS011;4772;52.382;9.752;2022-12-18T10:47:10;9.43;;;5.77;;
9467;SDS011;4772;52.382;9.752;2022-12-18T10:49:37;8.80;;;5.70;;
9467;SDS011;4772;52.382;9.752;2022-12-18T10:52:19;8.53;;;6.00;;
9467;SDS011;4772;52.382;9.752;2022-12-18T10:54:47;8.13;;;5.83;;
9467;SDS011;4772;52.382;9.752;2022-12-18T10:57:15;7.17;;;5.63;;
9467;SDS011;4772;52.382;9.752;2022-12-18T10:59:49;8.63;;;5.77;;
9467;SDS011;4772;52.382;9.752;2022-12-18T11:04:54;9.23;;;5.57;;
9467;SDS011;4772;52.382;9.752;2022-12-18T11:07:20;9.70;;;6.30;;
9467;SDS011;4772;52.382;9.752;2022-12-18T11:09:46;8.60;;;6.20;;
9467;SDS011;4772;52.382;9.752;2022-12-18T11:12:24;7.83;;;6.10;;
9467;SDS011;4772;52.382;9.752;2022-12-18T11:14:53;7.87;;;5.53;;
9467;SDS011;4772;52.382;9.752;2022-12-18T11:19:52;9.33;;;6.13;;
9467;SDS011;4772;52.382;9.752;2022-12-18T11:22:20;8.90;;;6.53;;
9467;SDS011;4772;52.382;9.752;2022-12-18T11:24:53;8.53;;;6.00;;
9467;SDS011;4772;52.382;9.752;2022-12-18T11:27:20;9.98;;;7.60;;
9467;SDS011;4772;52.382;9.752;2022-12-18T11:29:46;8.57;;;6.43;;
9467;SDS011;4772;52.382;9.752;2022-12-18T11:34:45;7.00;;;5.60;;
9467;SDS011;4772;52.382;9.752;2022-12-18T11:37:12;7.40;;;5.53;;
9467;SDS011;4772;52.382;9.752;2022-12-18T11:39:45;9.17;;;5.93;;
9467;SDS011;4772;52.382;9.752;2022-12-18T11:42:12;9.60;;;5.83;;
9467;SDS011;4772;52.382;9.752;2022-12-18T11:49:50;9.73;;;6.10;;
9467;SDS011;4772;52.382;9.752;2022-12-18T11:52:22;7.57;;;5.50;;
9467;SDS011;4772;52.382;9.752;2022-12-18T11:54:57;6.90;;;5.60;;
9467;SDS011;4772;52.382;9.752;2022-12-18T11:57:32;7.00;;;5.00;;
9467;SDS011;4772;52.382;9.752;2022-12-18T12:05:36;5.90;;;4.67;;
9467;SDS011;4772;52.382;9.752;2022-12-18T12:08:12;6.57;;;4.60;;
9467;SDS011;4772;52.382;9.752;2022-12-18T12:10:53;6.77;;;5.03;;
9467;SDS011;4772;52.382;9.752;2022-12-18T12:21:02;7.30;;;4.87;;
9467;SDS011;4772;52.382;9.752;2022-12-18T12:24:08;6.40;;;4.87;;
9467;SDS011;4772;52.382;9.752;2022-12-18T12:26:36;7.80;;;4.87;;
9467;SDS011;4772;52.382;9.752;2022-12-18T12:29:22;7.27;;;4.90;;
9467;SDS011;4772;52.382;9.752;2022-12-18T12:31:57;5.93;;;4.73;;
9467;SDS011;4772;52.382;9.752;2022-12-18T12:34:26;9.27;;;5.00;;
9467;SDS011;4772;52.382;9.752;2022-12-18T12:37:06;11.37;;;5.33;;
9467;SDS011;4772;52.382;9.752;2022-12-18T12:39:37;8.60;;;5.77;;
9467;SDS011;4772;52.382;9.752;2022-12-18T12:42:05;9.83;;;5.67;;
9467;SDS011;4772;52.382;9.752;2022-12-18T12:44:55;9.23;;;6.30;;
9467;SDS011;4772;52.382;9.752;2022-12-18T12:47:26;7.20;;;5.50;;
9467;SDS011;4772;52.382;9.752;2022-12-18T12:49:54;7.57;;;5.60;;
9467;SDS011;4772;52.382;9.752;2022-12-18T12:52:42;6.93;;;5.37;;
9467;SDS011;4772;52.382;9.752;2022-12-18T12:55:07;8.83;;;5.00;;
9467;SDS011;4772;52.382;9.752;2022-12-18T12:57:39;6.13;;;4.60;;
9467;SDS011;4772;52.382;9.752;2022-12-18T13:02:58;7.97;;;5.97;;
9467;SDS011;4772;52.382;9.752;2022-12-18T13:07:47;9.37;;;6.67;;
9467;SDS011;4772;52.382;9.752;2022-12-18T13:18:25;11.13;;;6.97;;
9467;SDS011;4772;52.382;9.752;2022-12-18T13:25:58;13.13;;;7.97;;
9467;SDS011;4772;52.382;9.752;2022-12-18T13:30:59;12.50;;;7.80;;
9467;SDS011;4772;52.382;9.752;2022-12-18T13:35:55;15.73;;;8.17;;
9467;SDS011;4772;52.382;9.752;2022-12-18T13:40:55;15.57;;;9.67;;
9467;SDS011;4772;52.382;9.752;2022-12-18T13:48:23;14.07;;;8.87;;
9467;SDS011;4772;52.382;9.752;2022-12-18T13:51:01;17.07;;;9.67;;
9467;SDS011;4772;52.382;9.752;2022-12-18T13:54:17;14.07;;;9.50;;
9467;SDS011;4772;52.382;9.752;2022-12-18T13:56:23;18.10;;;10.33;;
9467;SDS011;4772;52.382;9.752;2022-12-18T14:01:34;18.53;;;10.50;;
9467;SDS011;4772;52.382;9.752;2022-12-18T14:04:10;15.03;;;10.17;;
9467;SDS011;4772;52.382;9.752;2022-12-18T14:06:36;17.57;;;11.00;;
9467;SDS011;4772;52.382;9.752;2022-12-18T14:09:02;17.90;;;10.50;;
9467;SDS011;4772;52.382;9.752;2022-12-18T14:11:29;19.83;;;10.80;;
9467;SDS011;4772;52.382;9.752;2022-12-18T14:13:55;17.17;;;10.40;;
9467;SDS011;4772;52.382;9.752;2022-12-18T14:16:22;16.93;;;9.73;;
9467;SDS011;4772;52.382;9.752;2022-12-18T14:18:50;18.40;;;12.10;;
9467;SDS011;4772;52.382;9.752;2022-12-18T14:23:48;18.83;;;12.10;;
9467;SDS011;4772;52.382;9.752;2022-12-18T14:26:24;18.87;;;11.23;;
9467;SDS011;4772;52.382;9.752;2022-12-18T14:28:52;19.20;;;11.97;;
9467;SDS011;4772;52.382;9.752;2022-12-18T14:31:22;19.93;;;11.87;;
9467;SDS011;4772;52.382;9.752;2022-12-18T14:33:49;19.13;;;11.53;;
9467;SDS011;4772;52.382;9.752;2022-12-18T14:36:25;20.73;;;11.93;;
9467;SDS011;4772;52.382;9.752;2022-12-18T14:38:52;18.60;;;10.97;;
9467;SDS011;4772;52.382;9.752;2022-12-18T14:41:19;20.00;;;12.53;;
9467;SDS011;4772;52.382;9.752;2022-12-18T14:43:54;21.70;;;11.73;;
9467;SDS011;4772;52.382;9.752;2022-12-18T14:46:27;20.77;;;11.93;;
9467;SDS011;4772;52.382;9.752;2022-12-18T14:48:53;20.27;;;12.20;;
9467;SDS011;4772;52.382;9.752;2022-12-18T14:51:22;19.47;;;12.13;;
9467;SDS011;4772;52.382;9.752;2022-12-18T14:53:52;21.60;;;12.80;;
9467;SDS011;4772;52.382;9.752;2022-12-18T14:56:23;21.23;;;13.03;;
9467;SDS011;4772;52.382;9.752;2022-12-18T14:58:53;18.13;;;11.67;;
9467;SDS011;4772;52.382;9.752;2022-12-18T15:01:24;22.17;;;11.97;;
9467;SDS011;4772;52.382;9.752;2022-12-18T15:03:51;18.33;;;11.30;;
9467;SDS011;4772;52.382;9.752;2022-12-18T15:06:38;20.33;;;12.43;;
9467;SDS011;4772;52.382;9.752;2022-12-18T15:09:21;20.60;;;12.50;;
9467;SDS011;4772;52.382;9.752;2022-12-18T15:11:47;21.37;;;13.67;;
9467;SDS011;4772;52.382;9.752;2022-12-18T15:14:23;24.83;;;12.93;;
9467;SDS011;4772;52.382;9.752;2022-12-18T15:16:51;20.57;;;12.53;;
9467;SDS011;4772;52.382;9.752;2022-12-18T15:19:17;21.73;;;13.33;;
9467;SDS011;4772;52.382;9.752;2022-12-18T15:21:43;23.57;;;14.00;;
9467;SDS011;4772;52.382;9.752;2022-12-18T15:24:16;22.60;;;13.43;;
9467;SDS011;4772;52.382;9.752;2022-12-18T15:26:43;22.30;;;13.07;;
9467;SDS011;4772;52.382;9.752;2022-12-18T15:29:19;22.13;;;13.33;;
9467;SDS011;4772;52.382;9.752;2022-12-18T15:31:57;24.03;;;14.07;;
9467;SDS011;4772;52.382;9.752;2022-12-18T15:34:23;24.80;;;14.13;;
9467;SDS011;4772;52.382;9.752;2022-12-18T15:36:51;22.57;;;12.80;;
9467;SDS011;4772;52.382;9.752;2022-12-18T15:39:17;23.13;;;13.90;;
9467;SDS011;4772;52.382;9.752;2022-12-18T15:41:43;21.90;;;13.40;;
9467;SDS011;4772;52.382;9.752;2022-12-18T15:44:29;19.97;;;12.83;;
9467;SDS011;4772;52.382;9.752;2022-12-18T15:46:55;23.47;;;14.20;;
9467;SDS011;4772;52.382;9.752;2022-12-18T15:49:21;25.90;;;13.70;;
9467;SDS011;4772;52.382;9.752;2022-12-18T15:51:57;18.67;;;12.23;;
9467;SDS011;4772;52.382;9.752;2022-12-18T15:54:23;26.67;;;15.20;;
9467;SDS011;4772;52.382;9.752;2022-12-18T15:57:09;27.13;;;14.03;;
9467;SDS011;4772;52.382;9.752;2022-12-18T15:59:47;31.03;;;16.63;;
9467;SDS011;4772;52.382;9.752;2022-12-18T16:02:15;31.93;;;17.97;;
9467;SDS011;4772;52.382;9.752;2022-12-18T16:04:41;31.77;;;17.67;;
9467;SDS011;4772;52.382;9.752;2022-12-18T16:07:08;26.90;;;14.07;;
9467;SDS011;4772;52.382;9.752;2022-12-18T16:09:34;29.97;;;16.00;;
9467;SDS011;4772;52.382;9.752;2022-12-18T16:12:00;29.13;;;16.87;;
9467;SDS011;4772;52.382;9.752;2022-12-18T16:14:27;27.43;;;15.37;;
9467;SDS011;4772;52.382;9.752;2022-12-18T16:16:55;22.90;;;13.93;;
9467;SDS011;4772;52.382;9.752;2022-12-18T16:19:21;23.93;;;14.97;;
9467;SDS011;4772;52.382;9.752;2022-12-18T16:21:47;20.00;;;13.20;;
9467;SDS011;4772;52.382;9.752;2022-12-18T16:24:15;21.57;;;13.10;;
9467;SDS011;4772;52.382;9.752;2022-12-18T16:26:42;21.70;;;13.13;;
9467;SDS011;4772;52.382;9.752;2022-12-18T16:29:08;20.20;;;13.97;;
9467;SDS011;4772;52.382;9.752;2022-12-18T16:31:35;21.47;;;14.27;;
9467;SDS011;4772;52.382;9.752;2022-12-18T16:34:14;23.93;;;13.27;;
9467;SDS011;4772;52.382;9.752;2022-12-18T16:36:43;23.50;;;13.97;;
9467;SDS011;4772;52.382;9.752;2022-12-18T16:39:09;22.13;;;13.77;;